Sunset Beach, NC

6:22 AM EST on November 26, 2014 (GMT -0500)
Wyndfall At Sandpiper Bay | Change Station
CLOSE
Current Station
Personal Weather Station
Location: Sunset Beach, NC
Elevation: 20 ft
Nearby Weather Stations

Elev 20 ft 33.92 °N, 78.50 °W | Updated 13 seconds ago

Overcast
Overcast
68.8 °F
Feels Like 68.8 °F
N
4.9
Wind Variable Wind from West
Gusts 10.9 mph

Today
High -- | Low -- °F
--% Chance of Precip.
Yesterday
High -- | Low -- °F
Precip. -- in
6:56 AM 5:05 PM
Waxing Crescent, 19% visible
Pressure 29.74 in
Visibility 4.0 miles
Clouds Few 800 ft
Mostly Cloudy 1200 ft
Overcast 4500 ft
Dew Point 67 °F
Humidity 95%
Rainfall 0.00 in
Snow Depth Not available.
UV 0 out of 12
Pollen .30 out of 12
Air Quality Not available.
Flu Activity Not available.
SPECI KCRE 261112Z AUTO 29008KT 4SM -RA BR FEW008 BKN012 OVC045 18/17 A2974 RMK AO1 RAB1058 P0001 T01780167

More Conditions Fewer Conditions

Pressure 29.74 in
Visibility 4.0 miles
Clouds Few 800 ft
Mostly Cloudy 1200 ft
Overcast 4500 ft
Dew Point 67 °F
Humidity 95%
Rainfall 0.00 in
Snow Depth Not available.
UV 0 out of 12
Pollen .30 out of 12
Air Quality Not available.
Flu Activity Not available.
SPECI KCRE 261112Z AUTO 29008KT 4SM -RA BR FEW008 BKN012 OVC045 18/17 A2974 RMK AO1 RAB1058 P0001 T01780167

More Conditions Fewer Conditions

10-Day Weather Forecast

Almanac

Astronomy

Nov. 26, 2014 Rise Set
Actual Time
Civil Twilight
Nautical Twilight
Astronomical Twilight
Moon
Length of Visible Light
Length of Day
Tomorrow will be .
, % of the Moon is Illuminated

Today's Extremes

State Highs State Lows

Community

WunderPhotos

Upload Photos

1,773,708 photos uploaded!

WunderBlogs® & News

Nearby

Air Quality

  Air Quality AQ Index Pollutant
Not available.

Snow Depth

Station Depth Elevation

Earthquake Activity

City Distance Mag. Time & Date
Minimum magnitude displayed is 2.5.

Coastal Water Temperatures

Place Temperature

Nearby Weather Stations